CheckWX is a tool to help pilots better visualize weather data.  It is not intended as a substitute for an official pre-flight weather briefing.

14:13:34 UTC

KRME METAR
Griffiss International Airport
Rome, New York, USA
Current

21 mins ago

KRME 221353Z 28006KT 10SM OVC015 11/07 A3024 RMK AO2 SLP240 T01060067
Observed
Apr-22 @ 13:53 UTC
Wind
  • 280° at 6 KTS
Visibility
10 SM
Flight Rules
MVFR
Cloud Levels
  • Overcast at 1,500' AGL
Temperature
11°C / 52°F
Dewpoint
C / 45°F
Humidity
77%
Altimeter
30.24" Hg
Pressure
1024.02 hPa
Previous

45 mins ago

KRME 221329Z 29006KT 10SM OVC015 11/07 A3024 RMK AO2 T01060067
Observed
Apr-22 @ 13:29 UTC
Wind
  • 290° at 6 KTS
Visibility
10 SM
Flight Rules
MVFR
Cloud Levels
  • Overcast at 1,500' AGL
Temperature
11°C / 52°F
Dewpoint
C / 45°F
Humidity
77%
Altimeter
30.24" Hg
Pressure
1024.02 hPa
Previous

1 hour ago

KRME 221253Z 27004KT 10SM OVC013 09/07 A3024 RMK AO2 SLP241 T00940067
Observed
Apr-22 @ 12:53 UTC
Wind
  • 270° at 4 KTS
Visibility
10 SM
Flight Rules
MVFR
Cloud Levels
  • Overcast at 1,300' AGL
Temperature
C / 48°F
Dewpoint
C / 45°F
Humidity
87%
Altimeter
30.24" Hg
Pressure
1024.02 hPa